sensor_id;sensor_type;location;lat;lon;timestamp;pressure;altitude;pressure_sealevel;temperature;humidity
17254;BME280;32542;52.832;13.816;2023-09-19T00:00:24;100508.38;;;23.71;58.13
17254;BME280;32542;52.832;13.816;2023-09-19T00:03:29;100503.03;;;23.71;58.18
17254;BME280;32542;52.832;13.816;2023-09-19T00:06:33;100506.56;;;23.72;57.78
17254;BME280;32542;52.832;13.816;2023-09-19T00:09:35;100499.41;;;23.72;58.11
17254;BME280;32542;52.832;13.816;2023-09-19T00:12:43;100499.31;;;23.74;58.03
17254;BME280;32542;52.832;13.816;2023-09-19T00:15:47;100498.44;;;23.73;57.77
17254;BME280;32542;52.832;13.816;2023-09-19T00:18:51;100500.47;;;23.70;57.97
17254;BME280;32542;52.832;13.816;2023-09-19T00:21:54;100491.50;;;23.71;58.17
17254;BME280;32542;52.832;13.816;2023-09-19T00:24:57;100502.19;;;23.71;58.18
17254;BME280;32542;52.832;13.816;2023-09-19T00:28:01;100494.25;;;23.69;57.82
17254;BME280;32542;52.832;13.816;2023-09-19T00:31:07;100498.78;;;23.69;57.87
17254;BME280;32542;52.832;13.816;2023-09-19T00:34:11;100497.03;;;23.68;57.85
17254;BME280;32542;52.832;13.816;2023-09-19T00:37:14;100492.56;;;23.68;57.75
17254;BME280;32542;52.832;13.816;2023-09-19T00:40:19;100485.59;;;23.66;58.04
17254;BME280;32542;52.832;13.816;2023-09-19T00:43:24;100476.69;;;23.65;58.01
17254;BME280;32542;52.832;13.816;2023-09-19T00:46:29;100481.94;;;23.67;58.11
17254;BME280;32542;52.832;13.816;2023-09-19T00:49:34;100480.13;;;23.67;57.82
17254;BME280;32542;52.832;13.816;2023-09-19T00:52:38;100492.56;;;23.68;57.71
17254;BME280;32542;52.832;13.816;2023-09-19T00:55:41;100473.09;;;23.66;58.12
17254;BME280;32542;52.832;13.816;2023-09-19T00:58:47;100476.69;;;23.65;57.92
17254;BME280;32542;52.832;13.816;2023-09-19T01:01:51;100482.06;;;23.65;57.71
17254;BME280;32542;52.832;13.816;2023-09-19T01:04:56;100478.63;;;23.63;57.79
17254;BME280;32542;52.832;13.816;2023-09-19T01:07:59;100483.97;;;23.63;58.07
17254;BME280;32542;52.832;13.816;2023-09-19T01:11:09;100474.31;;;23.61;57.80
17254;BME280;32542;52.832;13.816;2023-09-19T01:14:23;100483.31;;;23.60;57.81
17254;BME280;32542;52.832;13.816;2023-09-19T01:17:32;100493.13;;;23.59;58.23
17254;BME280;32542;52.832;13.816;2023-09-19T01:20:39;100492.28;;;23.59;58.05
17254;BME280;32542;52.832;13.816;2023-09-19T01:24:10;100480.72;;;23.58;58.02
17254;BME280;32542;52.832;13.816;2023-09-19T01:27:46;100495.69;;;23.61;57.76
17254;BME280;32542;52.832;13.816;2023-09-19T01:30:58;100479.88;;;23.58;57.94
17254;BME280;32542;52.832;13.816;2023-09-19T01:34:03;100480.72;;;23.58;57.66
17254;BME280;32542;52.832;13.816;2023-09-19T01:37:08;100484.34;;;23.57;57.96
17254;BME280;32542;52.832;13.816;2023-09-19T01:40:13;100477.28;;;23.56;57.96
17254;BME280;32542;52.832;13.816;2023-09-19T01:43:22;100491.41;;;23.58;57.85
17254;BME280;32542;52.832;13.816;2023-09-19T01:46:33;100493.31;;;23.56;58.07
17254;BME280;32542;52.832;13.816;2023-09-19T01:49:42;100488.84;;;23.57;57.64
17254;BME280;32542;52.832;13.816;2023-09-19T01:52:54;100489.13;;;23.52;57.84
17254;BME280;32542;52.832;13.816;2023-09-19T01:59:11;100500.78;;;23.51;58.07
17254;BME280;32542;52.832;13.816;2023-09-19T02:02:17;100498.00;;;23.53;57.61
17254;BME280;32542;52.832;13.816;2023-09-19T02:05:23;100501.72;;;23.50;57.82
17254;BME280;32542;52.832;13.816;2023-09-19T02:08:26;100501.72;;;23.50;57.65
17254;BME280;32542;52.832;13.816;2023-09-19T02:11:31;100499.75;;;23.54;57.57
17254;BME280;32542;52.832;13.816;2023-09-19T02:14:34;100503.25;;;23.54;57.48
17254;BME280;32542;52.832;13.816;2023-09-19T02:17:39;100503.25;;;23.54;57.57
17254;BME280;32542;52.832;13.816;2023-09-19T02:20:42;100505.00;;;23.55;57.60
17254;BME280;32542;52.832;13.816;2023-09-19T02:23:45;100500.41;;;23.57;57.60
17254;BME280;32542;52.832;13.816;2023-09-19T02:26:48;100504.00;;;23.56;57.37
17254;BME280;32542;52.832;13.816;2023-09-19T02:29:51;100514.69;;;23.56;57.39
17254;BME280;32542;52.832;13.816;2023-09-19T02:32:56;100508.53;;;23.56;57.45
17254;BME280;32542;52.832;13.816;2023-09-19T02:35:59;100509.28;;;23.58;57.59
17254;BME280;32542;52.832;13.816;2023-09-19T02:39:02;100515.56;;;23.57;57.35
17254;BME280;32542;52.832;13.816;2023-09-19T02:42:07;100520.06;;;23.56;57.44
17254;BME280;32542;52.832;13.816;2023-09-19T02:45:10;100522.72;;;23.56;57.29
17254;BME280;32542;52.832;13.816;2023-09-19T02:48:15;100520.06;;;23.56;57.15
17254;BME280;32542;52.832;13.816;2023-09-19T02:51:18;100515.56;;;23.57;57.28
17254;BME280;32542;52.832;13.816;2023-09-19T02:54:22;100524.47;;;23.57;56.99
17254;BME280;32542;52.832;13.816;2023-09-19T02:57:25;100524.47;;;23.57;57.10
17254;BME280;32542;52.832;13.816;2023-09-19T03:00:29;100527.25;;;23.56;57.12
17254;BME280;32542;52.832;13.816;2023-09-19T03:03:34;100533.41;;;23.56;57.20
17254;BME280;32542;52.832;13.816;2023-09-19T03:06:39;100532.59;;;23.56;57.04
17254;BME280;32542;52.832;13.816;2023-09-19T03:09:42;100535.25;;;23.56;56.86
17254;BME280;32542;52.832;13.816;2023-09-19T03:12:46;100540.59;;;23.56;56.87
17254;BME280;32542;52.832;13.816;2023-09-19T03:15:49;100543.34;;;23.54;57.05
17254;BME280;32542;52.832;13.816;2023-09-19T03:18:58;100541.66;;;23.53;57.17
17254;BME280;32542;52.832;13.816;2023-09-19T03:22:05;100541.66;;;23.53;57.20
17254;BME280;32542;52.832;13.816;2023-09-19T03:25:09;100545.19;;;23.54;57.01
17254;BME280;32542;52.832;13.816;2023-09-19T03:28:15;100548.78;;;23.53;57.01
17254;BME280;32542;52.832;13.816;2023-09-19T03:31:18;100555.78;;;23.55;57.15
17254;BME280;32542;52.832;13.816;2023-09-19T03:34:23;100543.34;;;23.54;56.80
17254;BME280;32542;52.832;13.816;2023-09-19T03:37:26;100541.66;;;23.53;56.88
17254;BME280;32542;52.832;13.816;2023-09-19T03:40:29;100545.25;;;23.52;56.98
17254;BME280;32542;52.832;13.816;2023-09-19T03:43:32;100546.34;;;23.50;56.82
17254;BME280;32542;52.832;13.816;2023-09-19T03:46:35;100555.28;;;23.49;56.75
17254;BME280;32542;52.832;13.816;2023-09-19T03:49:40;100556.34;;;23.46;56.84
17254;BME280;32542;52.832;13.816;2023-09-19T03:52:43;100564.47;;;23.45;56.94
17254;BME280;32542;52.832;13.816;2023-09-19T03:55:46;100577.06;;;23.43;56.94
17254;BME280;32542;52.832;13.816;2023-09-19T03:58:50;100564.91;;;23.37;56.92
17254;BME280;32542;52.832;13.816;2023-09-19T04:01:53;100563.31;;;23.35;56.88
17254;BME280;32542;52.832;13.816;2023-09-19T04:05:00;100561.59;;;23.34;56.83
17254;BME280;32542;52.832;13.816;2023-09-19T04:08:03;100559.88;;;23.33;56.76
17254;BME280;32542;52.832;13.816;2023-09-19T04:11:06;100567.00;;;23.32;56.92
17254;BME280;32542;52.832;13.816;2023-09-19T04:14:09;100568.81;;;23.32;57.01
17254;BME280;32542;52.832;13.816;2023-09-19T04:17:12;100578.63;;;23.31;56.75
17254;BME280;32542;52.832;13.816;2023-09-19T04:20:17;100580.63;;;23.27;56.91
17254;BME280;32542;52.832;13.816;2023-09-19T04:23:21;100589.59;;;23.26;56.52
17254;BME280;32542;52.832;13.816;2023-09-19T04:26:24;100587.78;;;23.27;56.63
17254;BME280;32542;52.832;13.816;2023-09-19T04:29:27;100586.91;;;23.26;56.69
17254;BME280;32542;52.832;13.816;2023-09-19T04:32:30;100591.44;;;23.26;56.59
17254;BME280;32542;52.832;13.816;2023-09-19T04:35:35;100594.16;;;23.24;56.54
17254;BME280;32542;52.832;13.816;2023-09-19T04:38:40;100594.56;;;23.18;56.77
17254;BME280;32542;52.832;13.816;2023-09-19T04:41:47;100595.59;;;23.16;56.33
17254;BME280;32542;52.832;13.816;2023-09-19T04:44:50;100608.00;;;23.17;56.39
17254;BME280;32542;52.832;13.816;2023-09-19T04:47:56;100608.88;;;23.17;56.24
17254;BME280;32542;52.832;13.816;2023-09-19T04:51:00;100604.56;;;23.15;56.13
17254;BME280;32542;52.832;13.816;2023-09-19T04:54:03;100619.72;;;23.14;56.15
17254;BME280;32542;52.832;13.816;2023-09-19T04:57:07;100613.53;;;23.14;56.03
17254;BME280;32542;52.832;13.816;2023-09-19T05:00:11;100624.22;;;23.14;55.85
17254;BME280;32542;52.832;13.816;2023-09-19T05:03:16;100623.44;;;23.12;55.85
17254;BME280;32542;52.832;13.816;2023-09-19T05:06:22;100619.25;;;23.08;55.89
17254;BME280;32542;52.832;13.816;2023-09-19T05:09:24;100624.59;;;23.08;55.52
17254;BME280;32542;52.832;13.816;2023-09-19T05:12:27;100626.59;;;23.04;55.22
17254;BME280;32542;52.832;13.816;2023-09-19T05:15:31;100637.38;;;23.03;55.39
17254;BME280;32542;52.832;13.816;2023-09-19T05:18:34;100638.97;;;23.05;55.17
17254;BME280;32542;52.832;13.816;2023-09-19T05:21:39;100652.16;;;23.08;55.14
17254;BME280;32542;52.832;13.816;2023-09-19T05:24:41;100651.28;;;23.08;55.12
17254;BME280;32542;52.832;13.816;2023-09-19T05:27:45;100649.50;;;23.08;54.93
17254;BME280;32542;52.832;13.816;2023-09-19T05:30:48;100659.41;;;23.06;54.99
17254;BME280;32542;52.832;13.816;2023-09-19T05:33:51;100654.06;;;23.06;54.82
17254;BME280;32542;52.832;13.816;2023-09-19T05:36:57;100654.16;;;23.05;54.64
17254;BME280;32542;52.832;13.816;2023-09-19T05:40:00;100656.84;;;23.05;54.45
17254;BME280;32542;52.832;13.816;2023-09-19T05:43:03;100659.56;;;23.03;54.41
17254;BME280;32542;52.832;13.816;2023-09-19T05:46:07;100669.41;;;23.03;54.55
17254;BME280;32542;52.832;13.816;2023-09-19T05:49:11;100673.03;;;23.02;54.57
17254;BME280;32542;52.832;13.816;2023-09-19T05:52:15;100678.38;;;23.02;54.64
17254;BME280;32542;52.832;13.816;2023-09-19T05:55:19;100689.03;;;23.02;54.25
17254;BME280;32542;52.832;13.816;2023-09-19T05:58:25;100698.03;;;23.01;54.39
17254;BME280;32542;52.832;13.816;2023-09-19T06:01:28;100708.00;;;22.97;54.31
17254;BME280;32542;52.832;13.816;2023-09-19T06:04:32;100706.31;;;22.96;54.30
17254;BME280;32542;52.832;13.816;2023-09-19T06:07:37;100722.38;;;22.95;54.36
17254;BME280;32542;52.832;13.816;2023-09-19T06:10:40;100727.06;;;22.91;54.24
17254;BME280;32542;52.832;13.816;2023-09-19T06:13:43;100719.06;;;22.91;54.07
17254;BME280;32542;52.832;13.816;2023-09-19T06:16:49;100737.63;;;22.93;53.89
17254;BME280;32542;52.832;13.816;2023-09-19T06:19:52;100745.66;;;22.93;53.93
17254;BME280;32542;52.832;13.816;2023-09-19T06:22:56;100742.91;;;22.94;53.64
17254;BME280;32542;52.832;13.816;2023-09-19T06:25:59;100746.44;;;22.95;53.60
17254;BME280;32542;52.832;13.816;2023-09-19T06:29:02;100748.41;;;22.91;53.68
17254;BME280;32542;52.832;13.816;2023-09-19T06:32:09;100750.41;;;22.88;53.76
17254;BME280;32542;52.832;13.816;2023-09-19T06:35:13;100751.25;;;22.88;53.68
17254;BME280;32542;52.832;13.816;2023-09-19T06:38:17;100755.56;;;22.91;53.68
17254;BME280;32542;52.832;13.816;2023-09-19T06:41:21;100750.56;;;22.85;53.47
17254;BME280;32542;52.832;13.816;2023-09-19T06:44:26;100755.91;;;22.85;53.67
17254;BME280;32542;52.832;13.816;2023-09-19T06:47:31;100752.31;;;22.86;53.63
17254;BME280;32542;52.832;13.816;2023-09-19T06:50:34;100763.16;;;22.83;53.48
17254;BME280;32542;52.832;13.816;2023-09-19T06:53:39;100755.91;;;22.85;53.31
17254;BME280;32542;52.832;13.816;2023-09-19T06:56:42;100762.22;;;22.84;53.57
17254;BME280;32542;52.832;13.816;2023-09-19T06:59:45;100766.59;;;22.85;53.32
17254;BME280;32542;52.832;13.816;2023-09-19T07:02:55;100769.47;;;22.82;53.57
17254;BME280;32542;52.832;13.816;2023-09-19T07:05:58;100769.38;;;22.83;53.51
17254;BME280;32542;52.832;13.816;2023-09-19T07:09:02;100770.03;;;22.87;52.75
17254;BME280;32542;52.832;13.816;2023-09-19T07:12:06;100755.16;;;22.83;53.22
17254;BME280;32542;52.832;13.816;2023-09-19T07:15:09;100764.13;;;22.82;53.43
17254;BME280;32542;52.832;13.816;2023-09-19T07:18:12;100765.91;;;22.81;52.92
17254;BME280;32542;52.832;13.816;2023-09-19T07:21:16;100773.22;;;22.78;52.86
17254;BME280;32542;52.832;13.816;2023-09-19T07:24:20;100774.19;;;22.77;53.15
17254;BME280;32542;52.832;13.816;2023-09-19T07:27:24;100773.41;;;22.75;53.31
17254;BME280;32542;52.832;13.816;2023-09-19T07:30:28;100777.78;;;22.76;53.39
17254;BME280;32542;52.832;13.816;2023-09-19T07:33:31;100780.28;;;22.79;52.83
17254;BME280;32542;52.832;13.816;2023-09-19T07:36:34;100784.88;;;22.77;53.07
17254;BME280;32542;52.832;13.816;2023-09-19T07:39:40;100790.19;;;22.77;53.08
17254;BME280;32542;52.832;13.816;2023-09-19T07:42:43;100789.34;;;22.76;52.31
17254;BME280;32542;52.832;13.816;2023-09-19T07:45:48;100808.22;;;22.73;52.22
17254;BME280;32542;52.832;13.816;2023-09-19T07:48:52;100808.47;;;22.69;51.67
17254;BME280;32542;52.832;13.816;2023-09-19T07:51:55;100819.47;;;22.63;52.25
17254;BME280;32542;52.832;13.816;2023-09-19T07:55:00;100831.09;;;22.62;52.04
17254;BME280;32542;52.832;13.816;2023-09-19T07:58:08;100821.38;;;22.61;51.65
17254;BME280;32542;52.832;13.816;2023-09-19T08:01:11;100825.91;;;22.59;52.12
17254;BME280;32542;52.832;13.816;2023-09-19T08:04:15;100838.31;;;22.60;52.08
17254;BME280;32542;52.832;13.816;2023-09-19T08:07:18;100845.41;;;22.61;51.59
17254;BME280;32542;52.832;13.816;2023-09-19T08:10:23;100855.09;;;22.62;51.83
17254;BME280;32542;52.832;13.816;2023-09-19T08:13:29;100843.56;;;22.61;51.43
17254;BME280;32542;52.832;13.816;2023-09-19T08:16:32;100826.72;;;22.61;51.41
17254;BME280;32542;52.832;13.816;2023-09-19T08:19:35;100846.22;;;22.61;51.79
17254;BME280;32542;52.832;13.816;2023-09-19T08:22:44;100839.09;;;22.62;50.77
17254;BME280;32542;52.832;13.816;2023-09-19T08:25:55;100843.66;;;22.60;50.29
17254;BME280;32542;52.832;13.816;2023-09-19T08:28:58;100850.06;;;22.56;50.65
17254;BME280;32542;52.832;13.816;2023-09-19T08:32:07;100841.28;;;22.53;50.94
17254;BME280;32542;52.832;13.816;2023-09-19T08:35:10;100851.88;;;22.55;50.87
17254;BME280;32542;52.832;13.816;2023-09-19T08:38:13;100853.63;;;22.56;50.38
17254;BME280;32542;52.832;13.816;2023-09-19T08:41:18;100867.09;;;22.53;49.77
17254;BME280;32542;52.832;13.816;2023-09-19T08:44:21;100855.66;;;22.51;50.00
17254;BME280;32542;52.832;13.816;2023-09-19T08:47:34;100874.44;;;22.49;49.93
17254;BME280;32542;52.832;13.816;2023-09-19T08:50:43;100862.97;;;22.47;49.43
17254;BME280;32542;52.832;13.816;2023-09-19T08:53:51;100872.09;;;22.43;49.93
17254;BME280;32542;52.832;13.816;2023-09-19T08:57:00;100858.75;;;22.43;49.19
17254;BME280;32542;52.832;13.816;2023-09-19T09:00:07;100856.06;;;22.43;49.32
17254;BME280;32542;52.832;13.816;2023-09-19T09:03:14;100868.69;;;22.40;49.83
17254;BME280;32542;52.832;13.816;2023-09-19T09:06:19;100863.22;;;22.43;50.04
17254;BME280;32542;52.832;13.816;2023-09-19T09:09:22;100874.66;;;22.45;50.03
17254;BME280;32542;52.832;13.816;2023-09-19T09:12:27;100874.66;;;22.45;49.84
17254;BME280;32542;52.832;13.816;2023-09-19T09:15:35;100884.31;;;22.47;49.78
17254;BME280;32542;52.832;13.816;2023-09-19T09:18:38;100888.69;;;22.48;49.73
17254;BME280;32542;52.832;13.816;2023-09-19T09:21:42;100887.81;;;22.48;50.07
17254;BME280;32542;52.832;13.816;2023-09-19T09:24:51;100895.78;;;22.49;49.10
17254;BME280;32542;52.832;13.816;2023-09-19T09:28:01;100903.78;;;22.49;49.70
17254;BME280;32542;52.832;13.816;2023-09-19T09:31:04;100893.09;;;22.49;49.18
17254;BME280;32542;52.832;13.816;2023-09-19T09:34:11;100899.31;;;22.50;49.14
17254;BME280;32542;52.832;13.816;2023-09-19T09:37:16;100895.78;;;22.49;49.68
17254;BME280;32542;52.832;13.816;2023-09-19T09:40:21;100900.09;;;22.52;48.87
17254;BME280;32542;52.832;13.816;2023-09-19T09:43:39;100893.00;;;22.51;49.86
17254;BME280;32542;52.832;13.816;2023-09-19T09:46:47;100892.94;;;22.52;50.09
17254;BME280;32542;52.832;13.816;2023-09-19T09:50:25;100891.03;;;22.54;49.19
17254;BME280;32542;52.832;13.816;2023-09-19T09:53:31;100894.66;;;22.53;49.16
17254;BME280;32542;52.832;13.816;2023-09-19T09:56:34;100894.66;;;22.53;48.66
17254;BME280;32542;52.832;13.816;2023-09-19T09:59:58;100882.25;;;22.52;48.79
17254;BME280;32542;52.832;13.816;2023-09-19T10:03:19;100893.88;;;22.51;48.89
17254;BME280;32542;52.832;13.816;2023-09-19T10:06:24;100894.81;;;22.50;47.70
17254;BME280;32542;52.832;13.816;2023-09-19T10:09:28;100896.72;;;22.48;47.14
17254;BME280;32542;52.832;13.816;2023-09-19T10:12:42;100893.34;;;22.45;47.27
17254;BME280;32542;52.832;13.816;2023-09-19T10:15:48;100898.00;;;22.41;48.55
17254;BME280;32542;52.832;13.816;2023-09-19T10:18:55;100899.63;;;22.44;48.54
17254;BME280;32542;52.832;13.816;2023-09-19T10:22:01;100896.88;;;22.45;48.71
17254;BME280;32542;52.832;13.816;2023-09-19T10:25:04;100895.00;;;22.47;47.85
17254;BME280;32542;52.832;13.816;2023-09-19T10:28:11;100902.13;;;22.47;48.04
17254;BME280;32542;52.832;13.816;2023-09-19T10:31:19;100893.25;;;22.46;48.29
17254;BME280;32542;52.832;13.816;2023-09-19T10:34:23;100895.00;;;22.47;48.30
17254;BME280;32542;52.832;13.816;2023-09-19T10:37:29;100887.00;;;22.47;48.44
17254;BME280;32542;52.832;13.816;2023-09-19T10:40:35;100888.63;;;22.50;48.70
17254;BME280;32542;52.832;13.816;2023-09-19T10:43:42;100895.53;;;22.54;48.37
17254;BME280;32542;52.832;13.816;2023-09-19T10:46:49;100894.47;;;22.57;48.27
17254;BME280;32542;52.832;13.816;2023-09-19T10:49:53;100884.78;;;22.56;46.97
17254;BME280;32542;52.832;13.816;2023-09-19T10:53:00;100890.09;;;22.56;47.31
17254;BME280;32542;52.832;13.816;2023-09-19T10:56:09;100901.72;;;22.54;47.69
17254;BME280;32542;52.832;13.816;2023-09-19T10:59:20;100911.56;;;22.54;46.63
17254;BME280;32542;52.832;13.816;2023-09-19T11:02:24;100904.66;;;22.50;46.55
17254;BME280;32542;52.832;13.816;2023-09-19T11:05:28;100891.31;;;22.50;47.33
17254;BME280;32542;52.832;13.816;2023-09-19T11:08:51;100902.03;;;22.48;46.85
17254;BME280;32542;52.832;13.816;2023-09-19T11:11:54;100898.44;;;22.49;47.46
17254;BME280;32542;52.832;13.816;2023-09-19T11:14:59;100901.03;;;22.51;47.61
17254;BME280;32542;52.832;13.816;2023-09-19T11:21:53;100902.81;;;22.50;45.22
17254;BME280;32542;52.832;13.816;2023-09-19T11:25:41;100902.22;;;22.45;46.45
17254;BME280;32542;52.832;13.816;2023-09-19T11:36:34;100905.81;;;22.44;46.67
17254;BME280;32542;52.832;13.816;2023-09-19T11:39:38;100904.13;;;22.43;45.19
17254;BME280;32542;52.832;13.816;2023-09-19T11:42:42;100905.03;;;22.42;46.32
17254;BME280;32542;52.832;13.816;2023-09-19T11:46:05;100908.47;;;22.44;44.95
17254;BME280;32542;52.832;13.816;2023-09-19T11:49:09;100906.78;;;22.43;45.77
17254;BME280;32542;52.832;13.816;2023-09-19T11:52:21;100910.28;;;22.44;46.67
17254;BME280;32542;52.832;13.816;2023-09-19T11:55:28;100911.16;;;22.44;46.62
17254;BME280;32542;52.832;13.816;2023-09-19T11:58:33;100906.50;;;22.48;46.04
17254;BME280;32542;52.832;13.816;2023-09-19T12:01:37;100909.28;;;22.46;45.29
17254;BME280;32542;52.832;13.816;2023-09-19T12:04:43;100912.91;;;22.45;46.40
17254;BME280;32542;52.832;13.816;2023-09-19T12:07:48;100908.41;;;22.46;46.57
17254;BME280;32542;52.832;13.816;2023-09-19T12:10:53;100913.59;;;22.49;45.19
17254;BME280;32542;52.832;13.816;2023-09-19T12:13:56;100907.38;;;22.48;45.68
17254;BME280;32542;52.832;13.816;2023-09-19T12:17:03;100915.38;;;22.48;45.76
17254;BME280;32542;52.832;13.816;2023-09-19T12:20:07;100918.91;;;22.49;45.24
17254;BME280;32542;52.832;13.816;2023-09-19T12:23:16;100916.34;;;22.47;45.80
17254;BME280;32542;52.832;13.816;2023-09-19T12:26:19;100919.00;;;22.47;46.19
17254;BME280;32542;52.832;13.816;2023-09-19T12:29:22;100926.06;;;22.48;45.92
17254;BME280;32542;52.832;13.816;2023-09-19T12:32:34;100923.25;;;22.51;45.11
17254;BME280;32542;52.832;13.816;2023-09-19T12:35:37;100926.94;;;22.49;44.31
17254;BME280;32542;52.832;13.816;2023-09-19T12:38:47;100926.28;;;22.44;44.41
17254;BME280;32542;52.832;13.816;2023-09-19T12:41:51;100920.19;;;22.42;44.41
17254;BME280;32542;52.832;13.816;2023-09-19T12:44:55;100930.94;;;22.40;45.46
17254;BME280;32542;52.832;13.816;2023-09-19T12:48:18;100923.88;;;22.39;44.96
17254;BME280;32542;52.832;13.816;2023-09-19T12:51:22;100934.53;;;22.39;44.68
17254;BME280;32542;52.832;13.816;2023-09-19T12:54:38;100932.69;;;22.41;45.28
17254;BME280;32542;52.832;13.816;2023-09-19T12:57:41;100930.00;;;22.41;44.63
17254;BME280;32542;52.832;13.816;2023-09-19T13:00:46;100930.94;;;22.40;45.75
17254;BME280;32542;52.832;13.816;2023-09-19T13:04:13;100929.84;;;22.44;44.84
17254;BME280;32542;52.832;13.816;2023-09-19T13:07:41;100934.38;;;22.42;44.15
17254;BME280;32542;52.832;13.816;2023-09-19T13:11:05;100928.28;;;22.40;45.47
17254;BME280;32542;52.832;13.816;2023-09-19T13:14:17;100933.53;;;22.42;45.22
17254;BME280;32542;52.832;13.816;2023-09-19T13:17:20;100939.63;;;22.44;45.64
17254;BME280;32542;52.832;13.816;2023-09-19T13:20:25;100944.91;;;22.45;44.69
17254;BME280;32542;52.832;13.816;2023-09-19T13:23:30;100936.97;;;22.44;44.29
17254;BME280;32542;52.832;13.816;2023-09-19T13:26:34;100929.94;;;22.43;45.07
17254;BME280;32542;52.832;13.816;2023-09-19T13:29:37;100938.81;;;22.43;45.11
17254;BME280;32542;52.832;13.816;2023-09-19T13:32:40;100926.28;;;22.44;44.47
17254;BME280;32542;52.832;13.816;2023-09-19T13:35:44;100929.06;;;22.42;43.95
17254;BME280;32542;52.832;13.816;2023-09-19T13:38:48;100926.38;;;22.42;43.87
17254;BME280;32542;52.832;13.816;2023-09-19T13:41:52;100925.59;;;22.40;43.12
17254;BME280;32542;52.832;13.816;2023-09-19T13:44:55;100930.94;;;22.40;42.66
17254;BME280;32542;52.832;13.816;2023-09-19T13:47:58;100928.41;;;22.37;43.09
17254;BME280;32542;52.832;13.816;2023-09-19T13:51:02;100931.09;;;22.37;43.89
17254;BME280;32542;52.832;13.816;2023-09-19T13:54:05;100929.38;;;22.36;43.92
17254;BME280;32542;52.832;13.816;2023-09-19T13:57:09;100941.75;;;22.37;43.05
17254;BME280;32542;52.832;13.816;2023-09-19T14:00:13;100941.75;;;22.37;41.65
17254;BME280;32542;52.832;13.816;2023-09-19T14:03:17;100937.69;;;22.30;42.84
17254;BME280;32542;52.832;13.816;2023-09-19T14:06:22;100941.38;;;22.28;43.30
17254;BME280;32542;52.832;13.816;2023-09-19T14:09:25;100940.50;;;22.27;43.75
17254;BME280;32542;52.832;13.816;2023-09-19T14:12:29;100937.69;;;22.30;42.56
17254;BME280;32542;52.832;13.816;2023-09-19T14:15:32;100943.97;;;22.29;43.59
17254;BME280;32542;52.832;13.816;2023-09-19T14:18:36;100935.03;;;22.30;42.87
17254;BME280;32542;52.832;13.816;2023-09-19T14:21:39;100935.97;;;22.29;43.00
17254;BME280;32542;52.832;13.816;2023-09-19T14:24:42;100938.63;;;22.29;43.56
17254;BME280;32542;52.832;13.816;2023-09-19T14:27:48;100925.28;;;22.29;43.73
17254;BME280;32542;52.832;13.816;2023-09-19T14:30:51;100936.75;;;22.31;44.22
17254;BME280;32542;52.832;13.816;2023-09-19T14:33:54;100927.81;;;22.32;44.55
17254;BME280;32542;52.832;13.816;2023-09-19T14:36:58;100930.38;;;22.34;43.91
17254;BME280;32542;52.832;13.816;2023-09-19T14:40:01;100925.94;;;22.34;43.88
17254;BME280;32542;52.832;13.816;2023-09-19T14:43:10;100927.63;;;22.35;44.35
17254;BME280;32542;52.832;13.816;2023-09-19T14:46:12;100932.03;;;22.36;44.41
17254;BME280;32542;52.832;13.816;2023-09-19T14:49:16;100924.03;;;22.36;44.62
17254;BME280;32542;52.832;13.816;2023-09-19T14:52:19;100923.88;;;22.39;43.28
17254;BME280;32542;52.832;13.816;2023-09-19T14:55:22;100925.69;;;22.39;43.78
17254;BME280;32542;52.832;13.816;2023-09-19T14:58:26;100917.75;;;22.37;43.56
17254;BME280;32542;52.832;13.816;2023-09-19T15:01:31;100922.31;;;22.35;43.08
17254;BME280;32542;52.832;13.816;2023-09-19T15:04:34;100925.94;;;22.34;43.22
17254;BME280;32542;52.832;13.816;2023-09-19T15:07:38;100931.41;;;22.31;43.23
17254;BME280;32542;52.832;13.816;2023-09-19T15:10:49;100921.69;;;22.30;44.23
17254;BME280;32542;52.832;13.816;2023-09-19T15:13:54;100926.06;;;22.31;44.44
17254;BME280;32542;52.832;13.816;2023-09-19T15:16:56;100918.84;;;22.33;44.72
17254;BME280;32542;52.832;13.816;2023-09-19T15:19:59;100909.91;;;22.34;44.71
17254;BME280;32542;52.832;13.816;2023-09-19T15:23:03;100913.38;;;22.36;44.77
17254;BME280;32542;52.832;13.816;2023-09-19T15:26:07;100910.59;;;22.38;44.76
17254;BME280;32542;52.832;13.816;2023-09-19T15:29:12;100913.19;;;22.39;44.69
17254;BME280;32542;52.832;13.816;2023-09-19T15:32:15;100912.25;;;22.40;44.99
17254;BME280;32542;52.832;13.816;2023-09-19T15:35:18;100898.00;;;22.41;44.28
17254;BME280;32542;52.832;13.816;2023-09-19T15:38:21;100897.19;;;22.39;44.40
17254;BME280;32542;52.832;13.816;2023-09-19T15:41:24;100906.94;;;22.40;44.72
17254;BME280;32542;52.832;13.816;2023-09-19T15:44:29;100910.47;;;22.41;44.94
17254;BME280;32542;52.832;13.816;2023-09-19T15:47:32;100908.66;;;22.41;44.99
17254;BME280;32542;52.832;13.816;2023-09-19T15:50:36;100910.38;;;22.42;44.81
17254;BME280;32542;52.832;13.816;2023-09-19T15:53:42;100914.78;;;22.43;45.28
17254;BME280;32542;52.832;13.816;2023-09-19T15:56:46;100919.25;;;22.43;45.12
17254;BME280;32542;52.832;13.816;2023-09-19T15:59:51;100921.81;;;22.44;44.87
17254;BME280;32542;52.832;13.816;2023-09-19T16:02:55;100921.81;;;22.44;45.03
17254;BME280;32542;52.832;13.816;2023-09-19T16:05:59;100917.38;;;22.45;44.97
17254;BME280;32542;52.832;13.816;2023-09-19T16:09:02;100923.56;;;22.45;45.07
17254;BME280;32542;52.832;13.816;2023-09-19T16:12:06;100915.56;;;22.45;45.12